Time;durP1;ratioP1;P1;durP2;ratioP2;P2;SDS_P1;SDS_P2;PMS_P1;PMS_P2;Temp;Humidity;BMP_temperature;BMP_pressure;BME280_temperature;BME280_humidity;BME280_pressure;Samples;Min_cycle;Max_cycle;Signal;HPM_P1;HPM_P2
2023/12/07 00:00:15;;;;;;;14.02;7.20;;;;;;;;;;4989233;28;20037;-72
2023/12/07 00:02:40;;;;;;;13.50;7.95;;;;;;;;;;4990190;28;20050;-74
2023/12/07 00:05:06;;;;;;;9.77;5.95;;;;;;;;;;4990284;28;20065;-71
2023/12/07 00:07:32;;;;;;;12.50;7.25;;;;;;;;;;4992705;28;20039;-72
2023/12/07 00:09:57;;;;;;;13.23;6.97;;;;;;;;;;4981482;28;20049;-72
2023/12/07 00:12:22;;;;;;;14.30;6.60;;;;;;;;;;4997259;28;20048;-72
2023/12/07 00:14:48;;;;;;;8.95;5.18;;;;;;;;;;5004476;28;20150;-72
2023/12/07 00:17:14;;;;;;;11.82;6.20;;;;;;;;;;5006611;28;20045;-71
2023/12/07 00:19:39;;;;;;;9.77;5.07;;;;;;;;;;4991554;28;20044;-71
2023/12/07 00:22:05;;;;;;;14.60;7.22;;;;;;;;;;5003963;28;20033;-72
2023/12/07 00:24:30;;;;;;;8.38;5.63;;;;;;;;;;4996407;28;20057;-73
2023/12/07 00:26:56;;;;;;;12.32;7.35;;;;;;;;;;5010136;28;20037;-73
2023/12/07 00:29:21;;;;;;;13.60;8.18;;;;;;;;;;5008571;28;20033;-73
2023/12/07 00:31:46;;;;;;;13.68;6.88;;;;;;;;;;5009131;28;20127;-72
2023/12/07 00:34:12;;;;;;;9.80;5.28;;;;;;;;;;5011042;28;20029;-73
2023/12/07 00:36:39;;;;;;;12.07;6.85;;;;;;;;;;5010525;28;20049;-73
2023/12/07 00:39:04;;;;;;;13.85;6.75;;;;;;;;;;4996670;28;20120;-73
2023/12/07 00:41:30;;;;;;;10.90;6.00;;;;;;;;;;5003675;28;20113;-73
2023/12/07 00:43:55;;;;;;;11.05;6.07;;;;;;;;;;5005523;28;20108;-73
2023/12/07 00:46:20;;;;;;;14.52;6.72;;;;;;;;;;5015109;28;20067;-73
2023/12/07 00:48:46;;;;;;;3.63;2.55;;;;;;;;;;5008996;28;20526;-73
2023/12/07 00:51:11;;;;;;;12.05;6.45;;;;;;;;;;5009185;28;20099;-73
2023/12/07 00:53:37;;;;;;;10.23;6.18;;;;;;;;;;5006673;28;20759;-73
2023/12/07 00:56:04;;;;;;;11.93;6.05;;;;;;;;;;5017996;28;20384;-73
2023/12/07 00:58:29;;;;;;;10.85;6.40;;;;;;;;;;5006596;28;20042;-73
2023/12/07 01:00:54;;;;;;;8.98;5.40;;;;;;;;;;5010974;28;20345;-73
2023/12/07 01:03:20;;;;;;;9.95;4.95;;;;;;;;;;5012703;28;20500;-73
2023/12/07 01:05:45;;;;;;;11.90;6.32;;;;;;;;;;5001847;28;20131;-73
2023/12/07 01:08:11;;;;;;;10.80;5.43;;;;;;;;;;5007242;28;20381;-73
2023/12/07 01:10:36;;;;;;;4.75;3.13;;;;;;;;;;5005246;28;20037;-73
2023/12/07 01:13:02;;;;;;;8.48;4.50;;;;;;;;;;5006487;28;20068;-73
2023/12/07 01:15:27;;;;;;;10.93;5.70;;;;;;;;;;4995629;28;20041;-72
2023/12/07 01:17:52;;;;;;;9.52;5.72;;;;;;;;;;5008056;28;20033;-72
2023/12/07 01:20:18;;;;;;;4.43;3.30;;;;;;;;;;4999932;28;20087;-73
2023/12/07 01:22:45;;;;;;;6.47;2.97;;;;;;;;;;5013150;28;20041;-74
2023/12/07 01:25:11;;;;;;;8.48;5.28;;;;;;;;;;5007117;28;20555;-74
2023/12/07 01:27:36;;;;;;;9.85;5.65;;;;;;;;;;5013887;28;20040;-73
2023/12/07 01:30:03;;;;;;;9.23;5.65;;;;;;;;;;5005297;28;20041;-72
2023/12/07 01:32:29;;;;;;;11.02;5.88;;;;;;;;;;5008060;28;20051;-73
2023/12/07 01:34:54;;;;;;;10.18;5.78;;;;;;;;;;4994156;28;20124;-73
2023/12/07 01:37:20;;;;;;;6.60;4.13;;;;;;;;;;5008538;28;20117;-73
2023/12/07 01:39:45;;;;;;;12.00;7.30;;;;;;;;;;5008405;28;20037;-73
2023/12/07 01:42:12;;;;;;;12.95;7.40;;;;;;;;;;5015645;28;20057;-72
2023/12/07 01:44:38;;;;;;;7.88;4.60;;;;;;;;;;5003882;28;20056;-73
2023/12/07 01:47:04;;;;;;;4.75;3.50;;;;;;;;;;5017818;28;20033;-73
2023/12/07 01:49:30;;;;;;;3.83;3.10;;;;;;;;;;4995562;28;20037;-73
2023/12/07 01:51:56;;;;;;;10.85;6.05;;;;;;;;;;5010780;28;20488;-71
2023/12/07 01:54:22;;;;;;;14.65;7.25;;;;;;;;;;5007048;28;20037;-72
2023/12/07 01:56:47;;;;;;;11.55;6.95;;;;;;;;;;5008808;28;20116;-71
2023/12/07 01:59:13;;;;;;;11.05;6.78;;;;;;;;;;5005737;28;20029;-71
2023/12/07 02:01:38;;;;;;;13.32;7.22;;;;;;;;;;5004422;28;20046;-71
2023/12/07 02:04:04;;;;;;;12.60;6.97;;;;;;;;;;4994925;28;20038;-71
2023/12/07 02:06:29;;;;;;;13.43;6.95;;;;;;;;;;5012576;28;20041;-71
2023/12/07 02:08:55;;;;;;;9.82;5.32;;;;;;;;;;5007579;28;20045;-72
2023/12/07 02:11:21;;;;;;;10.35;5.40;;;;;;;;;;5005955;28;20046;-73
2023/12/07 02:13:48;;;;;;;10.13;5.78;;;;;;;;;;5002827;28;20037;-73
2023/12/07 02:16:45;;;;;;;11.77;6.53;;;;;;;;;;4995043;28;20111;-72
2023/12/07 02:19:22;;;;;;;7.32;4.15;;;;;;;;;;4987067;28;20045;-73
2023/12/07 02:22:09;;;;;;;10.27;6.72;;;;;;;;;;5005985;28;20042;-73
2023/12/07 02:24:38;;;;;;;12.20;6.82;;;;;;;;;;5007640;28;20036;-73
2023/12/07 02:27:03;;;;;;;11.60;6.65;;;;;;;;;;5009938;28;20040;-72
2023/12/07 02:29:28;;;;;;;10.90;6.22;;;;;;;;;;4996329;28;20045;-73
2023/12/07 02:31:54;;;;;;;10.73;5.82;;;;;;;;;;5001649;28;20117;-72
2023/12/07 02:34:20;;;;;;;11.13;6.55;;;;;;;;;;5006105;28;20029;-72
2023/12/07 02:36:46;;;;;;;5.07;3.53;;;;;;;;;;5008718;28;20096;-73
2023/12/07 02:39:13;;;;;;;10.77;6.20;;;;;;;;;;5006053;28;20499;-73
2023/12/07 02:41:40;;;;;;;13.25;8.13;;;;;;;;;;5002936;28;20037;-73
2023/12/07 02:44:07;;;;;;;10.85;6.10;;;;;;;;;;4993980;28;20041;-72
2023/12/07 02:46:33;;;;;;;8.05;4.72;;;;;;;;;;5007698;28;20046;-72
2023/12/07 02:48:58;;;;;;;11.40;6.20;;;;;;;;;;5014623;28;20504;-72
2023/12/07 02:51:24;;;;;;;14.88;7.32;;;;;;;;;;5006331;28;20091;-72
2023/12/07 02:53:49;;;;;;;11.75;6.85;;;;;;;;;;5010194;28;20042;-73
2023/12/07 02:56:14;;;;;;;16.17;7.22;;;;;;;;;;5014294;28;20029;-73
2023/12/07 02:58:40;;;;;;;12.48;7.15;;;;;;;;;;5003802;28;20046;-72
2023/12/07 03:01:05;;;;;;;16.38;7.45;;;;;;;;;;5014724;28;20048;-72
2023/12/07 03:03:31;;;;;;;9.38;5.80;;;;;;;;;;5008629;28;20395;-73
2023/12/07 03:05:56;;;;;;;11.93;6.30;;;;;;;;;;5015825;28;20045;-72
2023/12/07 03:08:22;;;;;;;9.95;5.50;;;;;;;;;;5009922;28;20037;-73
2023/12/07 03:10:47;;;;;;;10.00;5.15;;;;;;;;;;5012352;28;20501;-73
2023/12/07 03:13:13;;;;;;;9.82;5.93;;;;;;;;;;4983529;28;20047;-73
2023/12/07 03:15:38;;;;;;;7.82;5.15;;;;;;;;;;5012854;28;20469;-72
2023/12/07 03:18:03;;;;;;;6.85;4.30;;;;;;;;;;5019328;28;20037;-73
2023/12/07 03:20:29;;;;;;;4.95;3.13;;;;;;;;;;5019650;28;20520;-72
2023/12/07 03:22:54;;;;;;;7.18;4.57;;;;;;;;;;5008581;28;20137;-73
2023/12/07 03:25:20;;;;;;;9.25;5.68;;;;;;;;;;5004813;28;20038;-73
2023/12/07 03:27:45;;;;;;;8.57;4.80;;;;;;;;;;5007388;28;20056;-73
2023/12/07 03:30:11;;;;;;;8.30;5.20;;;;;;;;;;5008441;28;20563;-72
2023/12/07 03:32:37;;;;;;;8.80;5.22;;;;;;;;;;5010674;28;20057;-73
2023/12/07 03:35:03;;;;;;;8.50;5.28;;;;;;;;;;5017703;28;20124;-72
2023/12/07 03:37:28;;;;;;;7.45;4.57;;;;;;;;;;5014257;28;20041;-73
2023/12/07 03:39:53;;;;;;;8.40;4.75;;;;;;;;;;4998734;28;20045;-73
2023/12/07 03:42:19;;;;;;;7.00;4.57;;;;;;;;;;5012178;28;20506;-73
2023/12/07 03:44:44;;;;;;;10.55;6.28;;;;;;;;;;5011076;28;20120;-73
2023/12/07 03:47:10;;;;;;;8.68;5.10;;;;;;;;;;5017695;28;20045;-73
2023/12/07 03:49:35;;;;;;;6.28;4.35;;;;;;;;;;5007336;28;20049;-73
2023/12/07 03:52:00;;;;;;;11.32;6.07;;;;;;;;;;5018359;28;20038;-72
2023/12/07 03:54:26;;;;;;;11.02;6.03;;;;;;;;;;5004657;28;20113;-73
2023/12/07 03:56:51;;;;;;;10.88;6.57;;;;;;;;;;5007983;28;20548;-72
2023/12/07 03:59:17;;;;;;;7.18;4.57;;;;;;;;;;5005189;28;20038;-72
2023/12/07 04:01:43;;;;;;;9.63;5.90;;;;;;;;;;5002422;28;20057;-72
2023/12/07 04:04:08;;;;;;;15.80;8.13;;;;;;;;;;5007169;28;20042;-72
2023/12/07 04:06:33;;;;;;;12.65;7.53;;;;;;;;;;5008573;28;20029;-72
2023/12/07 04:08:59;;;;;;;15.45;7.60;;;;;;;;;;4988896;28;20041;-73
2023/12/07 04:11:24;;;;;;;8.38;4.43;;;;;;;;;;5010975;28;20045;-72
2023/12/07 04:13:50;;;;;;;13.70;6.93;;;;;;;;;;5008466;28;20037;-72
2023/12/07 04:16:16;;;;;;;11.70;5.78;;;;;;;;;;5013877;28;20033;-72
2023/12/07 04:18:41;;;;;;;12.68;7.50;;;;;;;;;;5007555;28;20034;-72
2023/12/07 04:21:07;;;;;;;13.07;7.25;;;;;;;;;;5006294;28;20133;-72
2023/12/07 04:23:33;;;;;;;17.25;8.50;;;;;;;;;;4996300;28;20595;-72
2023/12/07 04:25:58;;;;;;;11.38;6.63;;;;;;;;;;5007578;28;20403;-72
2023/12/07 04:28:24;;;;;;;13.75;7.68;;;;;;;;;;4992008;28;20033;-72
2023/12/07 04:30:49;;;;;;;12.77;6.38;;;;;;;;;;5005643;28;20137;-71
2023/12/07 04:33:15;;;;;;;14.02;7.30;;;;;;;;;;5002807;28;20041;-72
2023/12/07 04:35:40;;;;;;;13.52;7.75;;;;;;;;;;5004877;28;20056;-72
2023/12/07 04:38:05;;;;;;;13.80;7.85;;;;;;;;;;4998082;28;20061;-72
2023/12/07 04:40:31;;;;;;;15.85;7.97;;;;;;;;;;5012469;28;20036;-72
2023/12/07 04:42:56;;;;;;;17.05;9.23;;;;;;;;;;5016181;28;20355;-72
2023/12/07 04:45:22;;;;;;;15.05;8.07;;;;;;;;;;5018306;28;20033;-72
2023/12/07 04:47:47;;;;;;;16.08;8.43;;;;;;;;;;5009642;28;20034;-72
2023/12/07 04:50:13;;;;;;;15.57;8.32;;;;;;;;;;5007268;28;20069;-72
2023/12/07 04:52:38;;;;;;;11.38;6.72;;;;;;;;;;4995623;28;20037;-72
2023/12/07 04:55:08;;;;;;;15.43;7.45;;;;;;;;;;5006752;28;20044;-72
2023/12/07 04:57:34;;;;;;;15.27;8.27;;;;;;;;;;5013588;28;20091;-72
2023/12/07 05:00:00;;;;;;;14.18;7.78;;;;;;;;;;5008760;28;20487;-72
2023/12/07 05:02:27;;;;;;;13.10;7.15;;;;;;;;;;5007685;28;20038;-72
2023/12/07 05:04:53;;;;;;;10.45;5.72;;;;;;;;;;5011227;28;21096;-72
2023/12/07 05:07:18;;;;;;;14.98;7.63;;;;;;;;;;4997208;28;20101;-72
2023/12/07 05:09:43;;;;;;;13.35;7.50;;;;;;;;;;5004619;28;20038;-72
2023/12/07 05:12:09;;;;;;;13.93;7.85;;;;;;;;;;5011099;28;20617;-72
2023/12/07 05:14:34;;;;;;;14.85;7.00;;;;;;;;;;5009811;28;20045;-72
2023/12/07 05:17:00;;;;;;;11.73;6.65;;;;;;;;;;5004431;28;20033;-72
2023/12/07 05:19:26;;;;;;;10.82;6.03;;;;;;;;;;5008891;28;20060;-72
2023/12/07 05:21:52;;;;;;;10.30;6.68;;;;;;;;;;5001701;28;20076;-73
2023/12/07 05:24:17;;;;;;;13.27;8.40;;;;;;;;;;5012893;28;20033;-73
2023/12/07 05:26:45;;;;;;;11.02;6.28;;;;;;;;;;5004487;28;20501;-73
2023/12/07 05:29:11;;;;;;;12.68;6.68;;;;;;;;;;5006489;28;20551;-73
2023/12/07 05:31:37;;;;;;;12.65;7.45;;;;;;;;;;5005418;28;20052;-73
2023/12/07 05:34:03;;;;;;;16.77;7.75;;;;;;;;;;4995038;28;20038;-73
2023/12/07 05:36:29;;;;;;;15.07;7.03;;;;;;;;;;5008519;28;20032;-73
2023/12/07 05:38:54;;;;;;;14.20;7.60;;;;;;;;;;5004972;28;20061;-73
2023/12/07 05:41:20;;;;;;;12.93;7.07;;;;;;;;;;5007568;28;20048;-73
2023/12/07 05:43:45;;;;;;;16.20;8.40;;;;;;;;;;4992359;28;20033;-73
2023/12/07 05:46:10;;;;;;;14.63;7.53;;;;;;;;;;4986342;28;20044;-73
2023/12/07 05:48:36;;;;;;;11.32;5.97;;;;;;;;;;4991906;28;20045;-73
2023/12/07 05:51:02;;;;;;;12.25;6.97;;;;;;;;;;5004311;28;20041;-73
2023/12/07 05:53:28;;;;;;;13.02;7.13;;;;;;;;;;5005450;28;20041;-73
2023/12/07 05:55:54;;;;;;;14.45;7.28;;;;;;;;;;5003273;28;20026;-74
2023/12/07 05:58:19;;;;;;;11.35;6.03;;;;;;;;;;5008871;28;20405;-73
2023/12/07 06:00:46;;;;;;;11.35;6.18;;;;;;;;;;5007024;28;20338;-73
2023/12/07 06:03:13;;;;;;;15.57;7.55;;;;;;;;;;5000951;28;20476;-73
2023/12/07 06:05:38;;;;;;;15.82;7.80;;;;;;;;;;5013744;28;20140;-73
2023/12/07 06:08:04;;;;;;;16.13;8.05;;;;;;;;;;5018228;28;20112;-72
2023/12/07 06:10:30;;;;;;;18.70;8.48;;;;;;;;;;5014070;28;20504;-73
2023/12/07 06:12:56;;;;;;;16.20;7.80;;;;;;;;;;5013901;28;20060;-73
2023/12/07 06:15:22;;;;;;;11.88;6.88;;;;;;;;;;5019721;28;20036;-72
2023/12/07 06:17:47;;;;;;;11.18;5.97;;;;;;;;;;5006968;28;20041;-73
2023/12/07 06:20:13;;;;;;;10.13;5.72;;;;;;;;;;5013596;28;20042;-76
2023/12/07 06:22:38;;;;;;;15.75;7.80;;;;;;;;;;5011351;28;20066;-73
2023/12/07 06:25:04;;;;;;;16.08;6.63;;;;;;;;;;5012614;28;20041;-72
2023/12/07 06:27:30;;;;;;;17.20;8.23;;;;;;;;;;5011907;28;20033;-73
2023/12/07 06:29:55;;;;;;;14.95;8.27;;;;;;;;;;5017931;28;20033;-71
2023/12/07 06:32:20;;;;;;;16.27;8.07;;;;;;;;;;5000416;28;20125;-72
2023/12/07 06:34:46;;;;;;;15.07;7.93;;;;;;;;;;5013499;28;20029;-71
2023/12/07 06:37:11;;;;;;;15.23;7.22;;;;;;;;;;5018427;28;20124;-71
2023/12/07 06:39:37;;;;;;;19.95;9.02;;;;;;;;;;5013754;28;20116;-72
2023/12/07 06:42:02;;;;;;;13.75;7.05;;;;;;;;;;5016107;28;20069;-72
2023/12/07 06:44:28;;;;;;;14.75;8.10;;;;;;;;;;5012048;28;21013;-72
2023/12/07 06:46:53;;;;;;;15.57;7.35;;;;;;;;;;5007806;28;20046;-72
2023/12/07 06:49:19;;;;;;;11.80;5.97;;;;;;;;;;4998148;28;20068;-72
2023/12/07 06:51:44;;;;;;;12.48;5.47;;;;;;;;;;5017664;28;20045;-73
2023/12/07 06:54:10;;;;;;;14.57;7.18;;;;;;;;;;5017086;28;20056;-73
2023/12/07 06:56:35;;;;;;;13.57;6.93;;;;;;;;;;5015071;28;20108;-73
2023/12/07 06:59:01;;;;;;;16.00;7.80;;;;;;;;;;5006266;28;20049;-73
2023/12/07 07:01:26;;;;;;;12.70;7.05;;;;;;;;;;5007952;28;20041;-73
2023/12/07 07:03:51;;;;;;;13.70;7.10;;;;;;;;;;5014406;28;20026;-73
2023/12/07 07:06:17;;;;;;;11.02;5.28;;;;;;;;;;5010063;28;20041;-73
2023/12/07 07:08:42;;;;;;;12.32;6.88;;;;;;;;;;5008959;28;20049;-73
2023/12/07 07:11:14;;;;;;;10.35;5.10;;;;;;;;;;5005802;28;20522;-72
2023/12/07 07:13:40;;;;;;;12.95;6.72;;;;;;;;;;4993714;28;20044;-73
2023/12/07 07:16:08;;;;;;;11.55;6.22;;;;;;;;;;5005580;28;20053;-74
2023/12/07 07:18:33;;;;;;;11.38;5.50;;;;;;;;;;5007269;28;20080;-73
2023/12/07 07:20:58;;;;;;;11.27;5.72;;;;;;;;;;5012636;28;20038;-73
2023/12/07 07:23:24;;;;;;;10.32;5.35;;;;;;;;;;5008095;28;20041;-73
2023/12/07 07:25:49;;;;;;;9.43;5.15;;;;;;;;;;5013723;28;20046;-73
2023/12/07 07:28:15;;;;;;;7.25;4.35;;;;;;;;;;4999481;28;20041;-73
2023/12/07 07:30:40;;;;;;;8.88;4.20;;;;;;;;;;5010396;28;20037;-73
2023/12/07 07:33:06;;;;;;;5.53;3.55;;;;;;;;;;5006297;28;20558;-73
2023/12/07 07:35:31;;;;;;;7.30;3.97;;;;;;;;;;5012526;28;20026;-74
2023/12/07 07:37:56;;;;;;;10.07;4.90;;;;;;;;;;5016688;28;20503;-74
2023/12/07 07:40:22;;;;;;;7.05;3.92;;;;;;;;;;5007168;28;20118;-73
2023/12/07 07:42:47;;;;;;;7.65;4.10;;;;;;;;;;4997288;28;20385;-74
2023/12/07 07:45:13;;;;;;;5.63;3.30;;;;;;;;;;5005135;28;20045;-73
2023/12/07 07:47:38;;;;;;;3.95;2.75;;;;;;;;;;5012036;28;20045;-73
2023/12/07 07:50:05;;;;;;;4.85;3.22;;;;;;;;;;5014492;28;20530;-74
2023/12/07 07:52:34;;;;;;;7.00;3.50;;;;;;;;;;5003394;28;20125;-73
2023/12/07 07:55:04;;;;;;;4.60;2.88;;;;;;;;;;5015416;28;20038;-74
2023/12/07 07:57:30;;;;;;;6.03;4.00;;;;;;;;;;4991194;28;20711;-73
2023/12/07 07:59:57;;;;;;;6.32;3.97;;;;;;;;;;5005933;28;20037;-74
2023/12/07 08:02:22;;;;;;;9.00;4.18;;;;;;;;;;5006601;28;20092;-73
2023/12/07 08:04:47;;;;;;;9.15;5.10;;;;;;;;;;5006657;28;20038;-73
2023/12/07 08:07:13;;;;;;;8.52;3.97;;;;;;;;;;4998974;28;20077;-74
2023/12/07 08:09:39;;;;;;;12.93;6.32;;;;;;;;;;4999448;28;20034;-74
2023/12/07 08:12:08;;;;;;;14.35;6.60;;;;;;;;;;5010258;28;20519;-74
2023/12/07 08:14:35;;;;;;;10.18;5.90;;;;;;;;;;5009075;28;20551;-74
2023/12/07 08:17:00;;;;;;;12.35;6.57;;;;;;;;;;5007912;28;20049;-74
2023/12/07 08:19:26;;;;;;;11.68;6.65;;;;;;;;;;5017249;28;20033;-73
2023/12/07 08:21:51;;;;;;;13.48;6.70;;;;;;;;;;5005448;28;20036;-74
2023/12/07 08:24:17;;;;;;;9.68;5.50;;;;;;;;;;4999510;28;20029;-74
2023/12/07 08:26:42;;;;;;;12.57;6.15;;;;;;;;;;5010311;28;20034;-74
2023/12/07 08:29:08;;;;;;;11.45;6.68;;;;;;;;;;5007128;28;20088;-73
2023/12/07 08:31:34;;;;;;;11.43;5.82;;;;;;;;;;5007254;28;20112;-74
2023/12/07 08:34:00;;;;;;;17.08;7.78;;;;;;;;;;5010591;28;20037;-73
2023/12/07 08:36:26;;;;;;;14.60;8.60;;;;;;;;;;5008232;28;20045;-73
2023/12/07 08:38:52;;;;;;;8.38;4.10;;;;;;;;;;4996115;28;20045;-74
2023/12/07 08:41:17;;;;;;;14.57;7.72;;;;;;;;;;5007498;28;20034;-74
2023/12/07 08:43:43;;;;;;;10.70;5.30;;;;;;;;;;4999607;28;20088;-74
2023/12/07 08:46:08;;;;;;;15.02;8.00;;;;;;;;;;5015366;28;20108;-74
2023/12/07 08:48:34;;;;;;;13.45;7.40;;;;;;;;;;5011185;28;20563;-74
2023/12/07 08:50:59;;;;;;;14.30;7.70;;;;;;;;;;5011892;28;20041;-74
2023/12/07 08:53:26;;;;;;;15.10;8.00;;;;;;;;;;4996233;28;20034;-74
2023/12/07 08:55:53;;;;;;;19.60;8.38;;;;;;;;;;5008721;28;20405;-74
2023/12/07 08:58:18;;;;;;;16.45;7.85;;;;;;;;;;5017373;28;20100;-73
2023/12/07 09:00:44;;;;;;;15.07;7.05;;;;;;;;;;5003331;28;20030;-73
2023/12/07 09:03:09;;;;;;;10.68;5.90;;;;;;;;;;5005050;28;20524;-73
2023/12/07 09:05:35;;;;;;;13.32;6.53;;;;;;;;;;5009298;28;20037;-74
2023/12/07 09:08:00;;;;;;;15.98;7.65;;;;;;;;;;4998117;28;20045;-73
2023/12/07 09:10:26;;;;;;;13.15;6.57;;;;;;;;;;5012025;28;20038;-73
2023/12/07 09:12:51;;;;;;;11.45;6.32;;;;;;;;;;5011300;28;20524;-75
2023/12/07 09:15:17;;;;;;;11.30;6.38;;;;;;;;;;5007621;28;20111;-74
2023/12/07 09:17:42;;;;;;;9.80;5.97;;;;;;;;;;5015453;28;20030;-73
2023/12/07 09:20:12;;;;;;;10.43;5.68;;;;;;;;;;4990991;28;20044;-73
2023/12/07 09:22:42;;;;;;;8.45;4.97;;;;;;;;;;4980219;28;20055;-74
2023/12/07 09:25:08;;;;;;;9.40;5.05;;;;;;;;;;5011779;28;20854;-73
2023/12/07 09:27:37;;;;;;;9.00;4.50;;;;;;;;;;5011647;28;20112;-73
2023/12/07 09:30:06;;;;;;;7.45;3.80;;;;;;;;;;5008313;28;20044;-72
2023/12/07 09:32:32;;;;;;;9.10;6.47;;;;;;;;;;5009301;28;20084;-72
2023/12/07 09:34:57;;;;;;;14.05;9.10;;;;;;;;;;5000246;28;20574;-76
2023/12/07 09:37:22;;;;;;;19.42;12.02;;;;;;;;;;5011780;28;20037;-73
2023/12/07 09:39:48;;;;;;;9.05;5.22;;;;;;;;;;5009542;28;20053;-72
2023/12/07 09:42:13;;;;;;;8.50;4.85;;;;;;;;;;5008979;28;20060;-74
2023/12/07 09:44:39;;;;;;;10.10;5.60;;;;;;;;;;5011468;28;20041;-72
2023/12/07 09:47:06;;;;;;;7.22;4.40;;;;;;;;;;4996839;28;20091;-75
2023/12/07 09:49:31;;;;;;;7.35;4.30;;;;;;;;;;4997139;28;20059;-72
2023/12/07 09:51:58;;;;;;;8.32;4.88;;;;;;;;;;5011429;28;20478;-74
2023/12/07 09:54:27;;;;;;;8.27;4.25;;;;;;;;;;4986736;28;20082;-73
2023/12/07 09:56:54;;;;;;;7.90;3.78;;;;;;;;;;5009844;28;20038;-75
2023/12/07 09:59:20;;;;;;;5.88;3.72;;;;;;;;;;5013408;28;20045;-73
2023/12/07 10:01:45;;;;;;;7.90;3.60;;;;;;;;;;5005030;28;20111;-73
2023/12/07 10:04:25;;;;;;;5.50;2.72;;;;;;;;;;5009095;28;20041;-72
2023/12/07 10:06:52;;;;;;;4.90;2.93;;;;;;;;;;5002783;28;20404;-75
2023/12/07 10:09:24;;;;;;;7.15;3.58;;;;;;;;;;5014404;28;20290;-74
2023/12/07 10:11:49;;;;;;;4.35;2.67;;;;;;;;;;5010468;28;20784;-72
2023/12/07 10:14:15;;;;;;;7.80;4.07;;;;;;;;;;4979150;28;20049;-72
2023/12/07 10:16:55;;;;;;;4.05;3.03;;;;;;;;;;4999567;28;20045;-74
2023/12/07 10:19:24;;;;;;;6.07;2.47;;;;;;;;;;5013505;28;20033;-74
2023/12/07 10:21:51;;;;;;;4.28;2.70;;;;;;;;;;5009325;28;20116;-72
2023/12/07 10:24:21;;;;;;;4.53;2.75;;;;;;;;;;5011159;28;20052;-74
2023/12/07 10:26:48;;;;;;;4.20;2.53;;;;;;;;;;5002745;28;20127;-73
2023/12/07 10:29:14;;;;;;;4.40;2.75;;;;;;;;;;5007389;28;20076;-75
2023/12/07 10:31:39;;;;;;;5.63;3.20;;;;;;;;;;5016093;28;20065;-74
2023/12/07 10:34:05;;;;;;;4.55;2.60;;;;;;;;;;5012908;28;20038;-73
2023/12/07 10:36:32;;;;;;;3.40;2.80;;;;;;;;;;5010980;28;20029;-73
2023/12/07 10:38:58;;;;;;;5.90;3.25;;;;;;;;;;5015471;28;20033;-72
2023/12/07 10:41:24;;;;;;;6.15;3.28;;;;;;;;;;5000941;28;20065;-73
2023/12/07 10:43:58;;;;;;;7.25;3.05;;;;;;;;;;5009983;28;20095;-73
2023/12/07 10:46:25;;;;;;;4.45;3.25;;;;;;;;;;5011612;28;20046;-73
2023/12/07 10:49:14;;;;;;;2.85;2.15;;;;;;;;;;5014029;28;20037;-73
2023/12/07 10:51:57;;;;;;;2.83;1.58;;;;;;;;;;4996220;28;20045;-73
2023/12/07 10:54:29;;;;;;;3.55;2.25;;;;;;;;;;5000932;28;20374;-74
2023/12/07 10:56:55;;;;;;;3.47;2.17;;;;;;;;;;4997403;28;20029;-73
2023/12/07 10:59:24;;;;;;;6.25;2.63;;;;;;;;;;5007649;28;20030;-73
2023/12/07 11:01:52;;;;;;;3.05;2.22;;;;;;;;;;5007770;28;20101;-74
2023/12/07 11:04:18;;;;;;;4.07;2.58;;;;;;;;;;4998719;28;20051;-73
2023/12/07 11:06:48;;;;;;;3.55;2.22;;;;;;;;;;5005396;28;20709;-73
2023/12/07 11:09:21;;;;;;;6.75;2.65;;;;;;;;;;4998121;28;20039;-73
2023/12/07 11:11:56;;;;;;;5.05;3.28;;;;;;;;;;4997750;28;20038;-74
2023/12/07 11:14:22;;;;;;;5.53;3.20;;;;;;;;;;4997687;28;20119;-76
2023/12/07 11:16:47;;;;;;;6.00;2.75;;;;;;;;;;5011632;28;20042;-74
2023/12/07 11:19:41;;;;;;;4.45;2.70;;;;;;;;;;5010810;28;20535;-73
2023/12/07 11:22:11;;;;;;;7.43;3.78;;;;;;;;;;5010348;28;20034;-72
2023/12/07 11:24:37;;;;;;;6.05;3.30;;;;;;;;;;4999113;28;20076;-73
2023/12/07 11:27:02;;;;;;;7.38;4.30;;;;;;;;;;5002881;28;20033;-74
2023/12/07 11:29:29;;;;;;;4.45;2.63;;;;;;;;;;5008203;28;20036;-74
2023/12/07 11:32:01;;;;;;;5.85;3.92;;;;;;;;;;5011899;28;20046;-74
2023/12/07 11:34:41;;;;;;;6.47;3.78;;;;;;;;;;5008267;28;20939;-74
2023/12/07 11:37:07;;;;;;;7.82;3.67;;;;;;;;;;5013283;28;20098;-73
2023/12/07 11:39:45;;;;;;;8.18;4.28;;;;;;;;;;4997107;28;20065;-75
2023/12/07 11:42:18;;;;;;;7.30;4.07;;;;;;;;;;5011892;28;20381;-74
2023/12/07 11:44:48;;;;;;;8.57;4.03;;;;;;;;;;5005392;28;20045;-72
2023/12/07 11:47:19;;;;;;;6.75;3.45;;;;;;;;;;5012602;28;20156;-74
2023/12/07 11:49:45;;;;;;;6.85;3.58;;;;;;;;;;4996123;28;20038;-74
2023/12/07 11:52:18;;;;;;;9.05;3.63;;;;;;;;;;5011839;28;20410;-73
2023/12/07 11:54:47;;;;;;;7.65;4.05;;;;;;;;;;5006356;28;20030;-72
2023/12/07 11:57:14;;;;;;;6.25;3.78;;;;;;;;;;5011131;28;20095;-74
2023/12/07 11:59:40;;;;;;;6.60;4.22;;;;;;;;;;5015456;28;20073;-74
2023/12/07 12:02:05;;;;;;;6.78;3.95;;;;;;;;;;5001678;28;20065;-75
2023/12/07 12:04:31;;;;;;;3.90;2.65;;;;;;;;;;5003111;28;20053;-73
2023/12/07 12:06:56;;;;;;;5.07;2.78;;;;;;;;;;5009362;28;20042;-73
2023/12/07 12:09:24;;;;;;;4.72;2.90;;;;;;;;;;5012284;28;20033;-75
2023/12/07 12:11:50;;;;;;;6.20;2.53;;;;;;;;;;5008418;28;20537;-75
2023/12/07 12:14:18;;;;;;;3.05;2.05;;;;;;;;;;5011390;28;20045;-73
2023/12/07 12:16:46;;;;;;;3.80;2.33;;;;;;;;;;4998547;28;20044;-73
2023/12/07 12:19:11;;;;;;;4.32;2.10;;;;;;;;;;5009190;28;20056;-73
2023/12/07 12:21:43;;;;;;;2.38;1.75;;;;;;;;;;5007078;28;20516;-76
2023/12/07 12:24:10;;;;;;;2.50;1.80;;;;;;;;;;5009624;28;20396;-75
2023/12/07 12:26:39;;;;;;;3.03;1.77;;;;;;;;;;4988680;28;20037;-73
2023/12/07 12:29:06;;;;;;;2.05;1.70;;;;;;;;;;5005987;28;20113;-74
2023/12/07 12:31:31;;;;;;;2.45;1.50;;;;;;;;;;5005905;28;20073;-73
2023/12/07 12:33:56;;;;;;;3.03;2.03;;;;;;;;;;5006142;28;20100;-72
2023/12/07 12:36:27;;;;;;;4.53;2.25;;;;;;;;;;5007022;28;20071;-75
2023/12/07 12:38:53;;;;;;;;;;;;;;;;;;5015507;28;20026;-74
2023/12/07 12:41:19;;;;;;;5.88;3.00;;;;;;;;;;5008705;28;19928;-75
2023/12/07 12:43:45;;;;;;;12.90;5.80;;;;;;;;;;5003722;28;20044;-75
2023/12/07 12:46:11;;;;;;;14.52;5.80;;;;;;;;;;5011006;28;20061;-74
2023/12/07 12:48:37;;;;;;;13.18;5.60;;;;;;;;;;5009438;28;20600;-74
2023/12/07 12:51:17;;;;;;;11.30;5.82;;;;;;;;;;5010266;28;20045;-73
2023/12/07 12:53:48;;;;;;;6.93;3.75;;;;;;;;;;5006800;28;20061;-73
2023/12/07 12:56:14;;;;;;;;;;;;;;;;;;4987532;28;20033;-75
2023/12/07 12:58:39;;;;;;;8.85;4.38;;;;;;;;;;5011418;28;19921;-72
2023/12/07 13:01:06;;;;;;;7.20;3.20;;;;;;;;;;5010609;28;20065;-72
2023/12/07 13:03:32;;;;;;;8.50;4.10;;;;;;;;;;5010500;28;20041;-74
2023/12/07 13:05:57;;;;;;;7.13;4.38;;;;;;;;;;5005537;28;20417;-75
2023/12/07 13:08:23;;;;;;;6.63;4.03;;;;;;;;;;5019764;28;20125;-74
2023/12/07 13:10:49;;;;;;;7.10;4.40;;;;;;;;;;4989250;28;20614;-72
2023/12/07 13:13:15;;;;;;;6.18;3.28;;;;;;;;;;5010225;28;20053;-75
2023/12/07 13:15:41;;;;;;;6.00;3.58;;;;;;;;;;5010689;28;20980;-73
2023/12/07 13:18:07;;;;;;;10.63;4.60;;;;;;;;;;5010875;28;20112;-73
2023/12/07 13:20:32;;;;;;;7.65;4.82;;;;;;;;;;5007889;28;20037;-74
2023/12/07 13:22:57;;;;;;;7.72;5.15;;;;;;;;;;5009771;28;20057;-73
2023/12/07 13:25:23;;;;;;;7.72;4.60;;;;;;;;;;4997444;28;20188;-72
2023/12/07 13:27:51;;;;;;;9.52;5.03;;;;;;;;;;5011654;28;20041;-74
2023/12/07 13:30:16;;;;;;;8.00;4.53;;;;;;;;;;5010204;28;20057;-73
2023/12/07 13:32:41;;;;;;;10.43;4.78;;;;;;;;;;5010623;28;20103;-73
2023/12/07 13:35:07;;;;;;;10.82;5.60;;;;;;;;;;5009989;28;20033;-75
2023/12/07 13:37:33;;;;;;;13.68;5.47;;;;;;;;;;4987666;28;20038;-74
2023/12/07 13:39:59;;;;;;;12.75;4.90;;;;;;;;;;5007168;28;20046;-73
2023/12/07 13:42:29;;;;;;;14.50;6.40;;;;;;;;;;5009290;28;20033;-72
2023/12/07 13:44:57;;;;;;;11.65;5.63;;;;;;;;;;5007899;28;20030;-75
2023/12/07 13:47:28;;;;;;;7.45;4.63;;;;;;;;;;5011738;28;20064;-73
2023/12/07 13:49:54;;;;;;;12.25;4.78;;;;;;;;;;4994006;28;20570;-72
2023/12/07 13:52:19;;;;;;;10.30;5.53;;;;;;;;;;5000490;28;20059;-73
2023/12/07 13:54:45;;;;;;;13.35;6.10;;;;;;;;;;5007224;28;20026;-75
2023/12/07 13:57:10;;;;;;;12.45;6.30;;;;;;;;;;4992806;28;20045;-73
2023/12/07 13:59:37;;;;;;;10.43;5.82;;;;;;;;;;5011511;28;20040;-73
2023/12/07 14:02:02;;;;;;;13.98;6.38;;;;;;;;;;5010802;28;20081;-73
2023/12/07 14:04:27;;;;;;;9.35;5.53;;;;;;;;;;5012694;28;20157;-74
2023/12/07 14:06:53;;;;;;;5.97;3.60;;;;;;;;;;5002256;28;20092;-73
2023/12/07 14:09:19;;;;;;;9.40;5.32;;;;;;;;;;5013252;28;20034;-74
2023/12/07 14:11:44;;;;;;;4.10;2.47;;;;;;;;;;5002407;28;20038;-74
2023/12/07 14:14:12;;;;;;;7.10;4.57;;;;;;;;;;4999263;28;20029;-73
2023/12/07 14:16:37;;;;;;;8.10;4.28;;;;;;;;;;5007794;28;20042;-74
2023/12/07 14:19:03;;;;;;;9.20;4.40;;;;;;;;;;5004014;28;20044;-74
2023/12/07 14:21:28;;;;;;;9.82;4.78;;;;;;;;;;5002731;28;20041;-74
2023/12/07 14:23:55;;;;;;;8.75;4.72;;;;;;;;;;5014535;28;20531;-73
2023/12/07 14:26:20;;;;;;;7.07;4.90;;;;;;;;;;5008136;28;20065;-73
2023/12/07 14:28:46;;;;;;;6.93;4.25;;;;;;;;;;4992813;28;20060;-73
2023/12/07 14:31:16;;;;;;;8.18;4.15;;;;;;;;;;5002966;28;20591;-73